sensor_id;sensor_type;location;lat;lon;timestamp;pressure;altitude;pressure_sealevel;temperature;humidity
58991;BME280;44781;53.444;14.476;2023-02-28T00:01:12;103174.54;;;-2.67;70.52
58991;BME280;44781;53.444;14.476;2023-02-28T00:03:40;103172.80;;;-2.68;70.64
58991;BME280;44781;53.444;14.476;2023-02-28T00:06:08;103173.28;;;-2.70;70.57
58991;BME280;44781;53.444;14.476;2023-02-28T00:08:37;103174.79;;;-2.73;70.43
58991;BME280;44781;53.444;14.476;2023-02-28T00:11:07;103179.58;;;-2.76;70.43
58991;BME280;44781;53.444;14.476;2023-02-28T00:13:36;103175.84;;;-2.82;70.51
58991;BME280;44781;53.444;14.476;2023-02-28T00:16:10;103172.15;;;-2.85;70.89
58991;BME280;44781;53.444;14.476;2023-02-28T00:18:37;103178.75;;;-2.83;70.59
58991;BME280;44781;53.444;14.476;2023-02-28T00:21:05;103179.91;;;-2.85;70.38
58991;BME280;44781;53.444;14.476;2023-02-28T00:23:33;103182.30;;;-2.87;70.16
58991;BME280;44781;53.444;14.476;2023-02-28T00:26:01;103183.84;;;-2.89;70.06
58991;BME280;44781;53.444;14.476;2023-02-28T00:28:28;103183.64;;;-2.90;70.31
58991;BME280;44781;53.444;14.476;2023-02-28T00:30:55;103183.98;;;-2.90;70.28
58991;BME280;44781;53.444;14.476;2023-02-28T00:33:24;103185.55;;;-2.90;70.31
58991;BME280;44781;53.444;14.476;2023-02-28T00:35:51;103182.90;;;-2.92;70.37
58991;BME280;44781;53.444;14.476;2023-02-28T00:38:18;103188.39;;;-2.96;70.37
58991;BME280;44781;53.444;14.476;2023-02-28T00:40:46;103188.45;;;-3.01;70.31
58991;BME280;44781;53.444;14.476;2023-02-28T00:43:13;103188.52;;;-3.06;70.07
58991;BME280;44781;53.444;14.476;2023-02-28T00:45:40;103186.11;;;-3.14;70.23
58991;BME280;44781;53.444;14.476;2023-02-28T00:48:09;103193.49;;;-3.18;70.42
58991;BME280;44781;53.444;14.476;2023-02-28T00:50:37;103198.58;;;-3.23;70.19
58991;BME280;44781;53.444;14.476;2023-02-28T00:53:04;103197.98;;;-3.26;70.08
58991;BME280;44781;53.444;14.476;2023-02-28T00:55:31;103199.99;;;-3.29;70.23
58991;BME280;44781;53.444;14.476;2023-02-28T00:57:58;103202.73;;;-3.30;70.34
58991;BME280;44781;53.444;14.476;2023-02-28T01:00:26;103202.58;;;-3.30;70.49
58991;BME280;44781;53.444;14.476;2023-02-28T01:02:53;103202.77;;;-3.29;70.67
58991;BME280;44781;53.444;14.476;2023-02-28T01:05:23;103203.77;;;-3.30;70.53
58991;BME280;44781;53.444;14.476;2023-02-28T01:07:51;103203.05;;;-3.32;70.43
58991;BME280;44781;53.444;14.476;2023-02-28T01:10:19;103206.13;;;-3.34;70.47
58991;BME280;44781;53.444;14.476;2023-02-28T01:12:47;103201.23;;;-3.37;70.53
58991;BME280;44781;53.444;14.476;2023-02-28T01:15:16;103203.73;;;-3.40;70.60
58991;BME280;44781;53.444;14.476;2023-02-28T01:17:46;103207.30;;;-3.45;70.41
58991;BME280;44781;53.444;14.476;2023-02-28T01:20:13;103208.39;;;-3.50;70.41
58991;BME280;44781;53.444;14.476;2023-02-28T01:22:40;103209.68;;;-3.53;70.48
58991;BME280;44781;53.444;14.476;2023-02-28T01:25:09;103211.36;;;-3.56;70.38
58991;BME280;44781;53.444;14.476;2023-02-28T01:27:36;103211.70;;;-3.57;70.49
58991;BME280;44781;53.444;14.476;2023-02-28T01:30:03;103214.46;;;-3.57;70.44
58991;BME280;44781;53.444;14.476;2023-02-28T01:32:30;103208.61;;;-3.55;70.70
58991;BME280;44781;53.444;14.476;2023-02-28T01:34:58;103209.80;;;-3.56;70.75
58991;BME280;44781;53.444;14.476;2023-02-28T01:37:27;103208.94;;;-3.56;70.76
58991;BME280;44781;53.444;14.476;2023-02-28T01:39:54;103206.83;;;-3.58;70.81
58991;BME280;44781;53.444;14.476;2023-02-28T01:42:21;103209.71;;;-3.61;70.82
58991;BME280;44781;53.444;14.476;2023-02-28T01:44:57;103209.48;;;-3.63;71.09
58991;BME280;44781;53.444;14.476;2023-02-28T01:47:31;103207.02;;;-3.65;70.94
58991;BME280;44781;53.444;14.476;2023-02-28T01:50:01;103204.70;;;-3.68;70.76
58991;BME280;44781;53.444;14.476;2023-02-28T01:52:32;103205.85;;;-3.71;70.87
58991;BME280;44781;53.444;14.476;2023-02-28T01:55:01;103205.84;;;-3.71;70.63
58991;BME280;44781;53.444;14.476;2023-02-28T01:57:36;103205.85;;;-3.71;70.67
58991;BME280;44781;53.444;14.476;2023-02-28T02:00:16;103211.55;;;-3.71;70.84
58991;BME280;44781;53.444;14.476;2023-02-28T02:02:50;103209.66;;;-3.70;70.66
58991;BME280;44781;53.444;14.476;2023-02-28T02:05:26;103211.42;;;-3.69;70.89
58991;BME280;44781;53.444;14.476;2023-02-28T02:07:57;103209.86;;;-3.69;71.02
58991;BME280;44781;53.444;14.476;2023-02-28T02:10:39;103214.48;;;-3.71;70.59
58991;BME280;44781;53.444;14.476;2023-02-28T02:15:57;103214.77;;;-3.81;70.83
58991;BME280;44781;53.444;14.476;2023-02-28T02:18:43;103211.71;;;-3.86;70.77
58991;BME280;44781;53.444;14.476;2023-02-28T02:40:11;103206.19;;;-3.94;71.14
58991;BME280;44781;53.444;14.476;2023-02-28T02:42:48;103205.70;;;-3.92;71.37
58991;BME280;44781;53.444;14.476;2023-02-28T02:47:51;103204.98;;;-3.93;71.33
58991;BME280;44781;53.444;14.476;2023-02-28T02:50:26;103208.06;;;-3.95;71.32
58991;BME280;44781;53.444;14.476;2023-02-28T02:53:01;103208.98;;;-4.00;71.44
58991;BME280;44781;53.444;14.476;2023-02-28T02:55:30;103208.02;;;-4.04;71.08
58991;BME280;44781;53.444;14.476;2023-02-28T02:58:02;103207.61;;;-4.08;71.13
58991;BME280;44781;53.444;14.476;2023-02-28T03:00:37;103208.45;;;-4.08;71.09
58991;BME280;44781;53.444;14.476;2023-02-28T03:03:07;103209.14;;;-4.08;71.17
58991;BME280;44781;53.444;14.476;2023-02-28T03:05:47;103208.30;;;-4.07;71.34
58991;BME280;44781;53.444;14.476;2023-02-28T03:08:15;103207.42;;;-4.08;71.35
58991;BME280;44781;53.444;14.476;2023-02-28T03:10:44;103206.56;;;-4.07;71.38
58991;BME280;44781;53.444;14.476;2023-02-28T03:16:18;103205.23;;;-4.05;71.77
58991;BME280;44781;53.444;14.476;2023-02-28T03:24:44;103207.05;;;-4.08;71.55
58991;BME280;44781;53.444;14.476;2023-02-28T03:27:30;103208.90;;;-4.11;71.72
58991;BME280;44781;53.444;14.476;2023-02-28T03:30:31;103209.21;;;-4.12;71.79
58991;BME280;44781;53.444;14.476;2023-02-28T03:33:08;103211.30;;;-4.11;71.84
58991;BME280;44781;53.444;14.476;2023-02-28T03:35:50;103207.19;;;-4.10;71.95
58991;BME280;44781;53.444;14.476;2023-02-28T03:38:28;103212.80;;;-4.07;72.00
58991;BME280;44781;53.444;14.476;2023-02-28T03:41:06;103213.00;;;-4.05;71.82
58991;BME280;44781;53.444;14.476;2023-02-28T03:43:39;103215.23;;;-4.06;71.62
58991;BME280;44781;53.444;14.476;2023-02-28T03:46:10;103213.66;;;-4.07;71.54
58991;BME280;44781;53.444;14.476;2023-02-28T03:48:47;103216.05;;;-4.08;71.62
58991;BME280;44781;53.444;14.476;2023-02-28T03:51:18;103212.30;;;-4.13;71.63
58991;BME280;44781;53.444;14.476;2023-02-28T03:53:52;103215.00;;;-4.16;71.47
58991;BME280;44781;53.444;14.476;2023-02-28T03:56:33;103215.96;;;-4.19;71.62
58991;BME280;44781;53.444;14.476;2023-02-28T03:59:13;103217.23;;;-4.23;71.77
58991;BME280;44781;53.444;14.476;2023-02-28T04:01:47;103218.90;;;-4.26;71.81
58991;BME280;44781;53.444;14.476;2023-02-28T04:04:15;103221.61;;;-4.28;71.71
58991;BME280;44781;53.444;14.476;2023-02-28T04:06:44;103218.13;;;-4.28;71.60
58991;BME280;44781;53.444;14.476;2023-02-28T04:09:13;103216.60;;;-4.28;71.93
58991;BME280;44781;53.444;14.476;2023-02-28T04:11:46;103217.46;;;-4.27;71.78
58991;BME280;44781;53.444;14.476;2023-02-28T04:14:16;103218.02;;;-4.27;71.72
58991;BME280;44781;53.444;14.476;2023-02-28T04:16:44;103221.10;;;-4.27;71.85
58991;BME280;44781;53.444;14.476;2023-02-28T04:19:12;103216.39;;;-4.29;71.72
58991;BME280;44781;53.444;14.476;2023-02-28T04:21:45;103216.86;;;-4.31;71.64
58991;BME280;44781;53.444;14.476;2023-02-28T04:24:20;103217.48;;;-4.34;71.68
58991;BME280;44781;53.444;14.476;2023-02-28T04:26:50;103223.11;;;-4.37;71.72
58991;BME280;44781;53.444;14.476;2023-02-28T04:29:27;103222.32;;;-4.41;71.83
58991;BME280;44781;53.444;14.476;2023-02-28T04:31:55;103222.58;;;-4.44;71.72
58991;BME280;44781;53.444;14.476;2023-02-28T04:34:27;103225.65;;;-4.46;71.74
58991;BME280;44781;53.444;14.476;2023-02-28T04:36:56;103228.42;;;-4.45;71.60
58991;BME280;44781;53.444;14.476;2023-02-28T04:39:24;103226.88;;;-4.45;71.66
58991;BME280;44781;53.444;14.476;2023-02-28T04:41:51;103228.29;;;-4.44;71.59
58991;BME280;44781;53.444;14.476;2023-02-28T04:44:18;103226.91;;;-4.43;71.49
58991;BME280;44781;53.444;14.476;2023-02-28T04:46:47;103232.45;;;-4.43;71.33
58991;BME280;44781;53.444;14.476;2023-02-28T04:49:15;103225.66;;;-4.45;71.32
58991;BME280;44781;53.444;14.476;2023-02-28T04:51:42;103225.23;;;-4.49;71.23
58991;BME280;44781;53.444;14.476;2023-02-28T04:54:09;103226.17;;;-4.51;71.29
58991;BME280;44781;53.444;14.476;2023-02-28T04:56:37;103227.99;;;-4.55;71.31
58991;BME280;44781;53.444;14.476;2023-02-28T04:59:04;103230.30;;;-4.59;71.24
58991;BME280;44781;53.444;14.476;2023-02-28T05:01:33;103229.51;;;-4.63;71.31
58991;BME280;44781;53.444;14.476;2023-02-28T05:04:04;103224.88;;;-4.68;71.40
58991;BME280;44781;53.444;14.476;2023-02-28T05:06:32;103228.81;;;-4.70;71.42
58991;BME280;44781;53.444;14.476;2023-02-28T05:08:59;103229.26;;;-4.72;71.30
58991;BME280;44781;53.444;14.476;2023-02-28T05:11:32;103225.95;;;-4.73;71.15
58991;BME280;44781;53.444;14.476;2023-02-28T05:14:12;103223.88;;;-4.73;71.09
58991;BME280;44781;53.444;14.476;2023-02-28T05:16:39;103222.51;;;-4.73;71.47
58991;BME280;44781;53.444;14.476;2023-02-28T05:19:07;103227.17;;;-4.73;71.59
58991;BME280;44781;53.444;14.476;2023-02-28T05:21:48;103222.83;;;-4.74;71.45
58991;BME280;44781;53.444;14.476;2023-02-28T05:24:16;103222.80;;;-4.76;71.38
58991;BME280;44781;53.444;14.476;2023-02-28T05:26:50;103225.15;;;-4.78;71.33
58991;BME280;44781;53.444;14.476;2023-02-28T05:29:18;103226.62;;;-4.81;71.50
58991;BME280;44781;53.444;14.476;2023-02-28T05:31:46;103230.16;;;-4.84;71.46
58991;BME280;44781;53.444;14.476;2023-02-28T05:34:14;103233.52;;;-4.87;71.29
58991;BME280;44781;53.444;14.476;2023-02-28T05:36:42;103237.20;;;-4.91;71.28
58991;BME280;44781;53.444;14.476;2023-02-28T05:39:09;103230.70;;;-4.96;71.43
58991;BME280;44781;53.444;14.476;2023-02-28T05:41:41;103230.92;;;-4.94;71.54
58991;BME280;44781;53.444;14.476;2023-02-28T05:44:10;103231.27;;;-4.93;71.50
58991;BME280;44781;53.444;14.476;2023-02-28T05:46:37;103232.02;;;-4.91;71.53
58991;BME280;44781;53.444;14.476;2023-02-28T05:49:05;103230.52;;;-4.90;71.43
58991;BME280;44781;53.444;14.476;2023-02-28T05:51:33;103233.64;;;-4.89;71.63
58991;BME280;44781;53.444;14.476;2023-02-28T05:54:03;103238.13;;;-4.89;71.58
58991;BME280;44781;53.444;14.476;2023-02-28T05:56:31;103244.98;;;-4.90;71.47
58991;BME280;44781;53.444;14.476;2023-02-28T05:59:04;103251.17;;;-4.91;71.45
58991;BME280;44781;53.444;14.476;2023-02-28T06:01:44;103249.07;;;-4.92;71.53
58991;BME280;44781;53.444;14.476;2023-02-28T06:04:16;103257.14;;;-4.94;71.66
58991;BME280;44781;53.444;14.476;2023-02-28T06:06:46;103265.52;;;-4.96;71.58
58991;BME280;44781;53.444;14.476;2023-02-28T06:09:14;103267.56;;;-4.97;71.50
58991;BME280;44781;53.444;14.476;2023-02-28T06:11:43;103267.33;;;-4.99;71.78
58991;BME280;44781;53.444;14.476;2023-02-28T06:14:15;103269.70;;;-5.01;71.66
58991;BME280;44781;53.444;14.476;2023-02-28T06:16:44;103266.77;;;-5.00;71.82
58991;BME280;44781;53.444;14.476;2023-02-28T06:19:16;103271.13;;;-4.99;71.63
58991;BME280;44781;53.444;14.476;2023-02-28T06:21:49;103272.18;;;-4.98;71.70
58991;BME280;44781;53.444;14.476;2023-02-28T06:24:18;103272.78;;;-4.96;71.91
58991;BME280;44781;53.444;14.476;2023-02-28T06:26:45;103276.11;;;-4.93;71.78
58991;BME280;44781;53.444;14.476;2023-02-28T06:29:23;103278.71;;;-4.92;71.90
58991;BME280;44781;53.444;14.476;2023-02-28T06:31:51;103273.92;;;-4.91;71.99
58991;BME280;44781;53.444;14.476;2023-02-28T06:34:40;103273.80;;;-4.90;72.23
58991;BME280;44781;53.444;14.476;2023-02-28T06:37:07;103276.05;;;-4.89;72.45
58991;BME280;44781;53.444;14.476;2023-02-28T06:39:34;103280.54;;;-4.89;72.38
58991;BME280;44781;53.444;14.476;2023-02-28T06:42:02;103281.94;;;-4.89;72.46
58991;BME280;44781;53.444;14.476;2023-02-28T06:44:30;103278.55;;;-4.87;72.30
58991;BME280;44781;53.444;14.476;2023-02-28T06:47:04;103280.74;;;-4.82;72.49
58991;BME280;44781;53.444;14.476;2023-02-28T06:49:33;103283.84;;;-4.76;72.87
58991;BME280;44781;53.444;14.476;2023-02-28T06:52:01;103285.23;;;-4.70;73.11
58991;BME280;44781;53.444;14.476;2023-02-28T06:54:29;103287.30;;;-4.63;73.35
58991;BME280;44781;53.444;14.476;2023-02-28T06:56:57;103291.08;;;-4.58;73.26
58991;BME280;44781;53.444;14.476;2023-02-28T06:59:25;103293.64;;;-4.52;73.60
58991;BME280;44781;53.444;14.476;2023-02-28T07:01:54;103288.77;;;-4.47;73.78
58991;BME280;44781;53.444;14.476;2023-02-28T07:04:22;103287.84;;;-4.43;73.78
58991;BME280;44781;53.444;14.476;2023-02-28T07:06:49;103292.48;;;-4.38;74.04
58991;BME280;44781;53.444;14.476;2023-02-28T07:09:16;103292.00;;;-4.29;74.26
58991;BME280;44781;53.444;14.476;2023-02-28T07:11:43;103292.78;;;-4.19;74.35
58991;BME280;44781;53.444;14.476;2023-02-28T07:14:11;103298.77;;;-4.08;74.74
58991;BME280;44781;53.444;14.476;2023-02-28T07:16:38;103289.23;;;-4.02;75.07
58991;BME280;44781;53.444;14.476;2023-02-28T07:19:05;103292.57;;;-3.86;75.31
58991;BME280;44781;53.444;14.476;2023-02-28T07:21:32;103294.54;;;-3.76;75.32
58991;BME280;44781;53.444;14.476;2023-02-28T07:24:00;103295.30;;;-3.65;75.53
58991;BME280;44781;53.444;14.476;2023-02-28T07:26:27;103296.88;;;-3.57;75.79
58991;BME280;44781;53.444;14.476;2023-02-28T07:28:55;103296.70;;;-3.49;76.01
58991;BME280;44781;53.444;14.476;2023-02-28T07:31:22;103296.56;;;-3.41;76.29
58991;BME280;44781;53.444;14.476;2023-02-28T07:33:50;103294.88;;;-3.31;76.51
58991;BME280;44781;53.444;14.476;2023-02-28T07:36:17;103296.02;;;-3.18;76.83
58991;BME280;44781;53.444;14.476;2023-02-28T07:38:48;103294.74;;;-3.05;77.13
58991;BME280;44781;53.444;14.476;2023-02-28T07:41:18;103297.27;;;-2.92;77.31
58991;BME280;44781;53.444;14.476;2023-02-28T07:43:46;103298.40;;;-2.79;77.47
58991;BME280;44781;53.444;14.476;2023-02-28T07:46:14;103299.66;;;-2.67;77.85
58991;BME280;44781;53.444;14.476;2023-02-28T07:48:43;103294.16;;;-2.56;77.96
58991;BME280;44781;53.444;14.476;2023-02-28T07:51:10;103294.70;;;-2.46;77.83
58991;BME280;44781;53.444;14.476;2023-02-28T07:53:37;103296.27;;;-2.35;77.84
58991;BME280;44781;53.444;14.476;2023-02-28T07:56:05;103299.09;;;-2.23;77.79
58991;BME280;44781;53.444;14.476;2023-02-28T07:58:32;103299.69;;;-2.09;77.94
58991;BME280;44781;53.444;14.476;2023-02-28T08:01:07;103300.45;;;-1.95;78.21
58991;BME280;44781;53.444;14.476;2023-02-28T08:03:35;103299.98;;;-1.81;78.38
58991;BME280;44781;53.444;14.476;2023-02-28T08:06:04;103298.98;;;-1.67;78.45
58991;BME280;44781;53.444;14.476;2023-02-28T08:08:32;103298.48;;;-1.55;78.61
58991;BME280;44781;53.444;14.476;2023-02-28T08:11:01;103293.27;;;-1.43;78.56
58991;BME280;44781;53.444;14.476;2023-02-28T08:13:29;103289.77;;;-1.33;78.42
58991;BME280;44781;53.444;14.476;2023-02-28T08:15:57;103292.52;;;-1.22;78.47
58991;BME280;44781;53.444;14.476;2023-02-28T08:18:24;103288.20;;;-1.09;78.54
58991;BME280;44781;53.444;14.476;2023-02-28T08:20:51;103289.94;;;-0.94;78.63
58991;BME280;44781;53.444;14.476;2023-02-28T08:23:18;103286.98;;;-0.79;78.67
58991;BME280;44781;53.444;14.476;2023-02-28T08:25:53;103284.90;;;-0.64;78.50
58991;BME280;44781;53.444;14.476;2023-02-28T08:28:21;103280.35;;;-0.50;78.18
58991;BME280;44781;53.444;14.476;2023-02-28T08:30:48;103281.37;;;-0.37;78.21
58991;BME280;44781;53.444;14.476;2023-02-28T08:33:15;103281.30;;;-0.25;78.36
58991;BME280;44781;53.444;14.476;2023-02-28T08:35:43;103283.33;;;-0.13;78.25
58991;BME280;44781;53.444;14.476;2023-02-28T08:38:10;103280.63;;;-0.03;77.69
58991;BME280;44781;53.444;14.476;2023-02-28T08:40:38;103276.35;;;0.06;77.34
58991;BME280;44781;53.444;14.476;2023-02-28T08:43:05;103272.94;;;0.15;77.05
58991;BME280;44781;53.444;14.476;2023-02-28T08:45:32;103268.70;;;0.27;76.43
58991;BME280;44781;53.444;14.476;2023-02-28T08:47:59;103267.55;;;0.39;76.11
58991;BME280;44781;53.444;14.476;2023-02-28T08:50:27;103270.25;;;0.52;75.90
58991;BME280;44781;53.444;14.476;2023-02-28T08:52:55;103267.36;;;0.65;75.58
58991;BME280;44781;53.444;14.476;2023-02-28T08:55:22;103267.25;;;0.77;75.50
58991;BME280;44781;53.444;14.476;2023-02-28T08:57:49;103266.08;;;0.88;75.19
58991;BME280;44781;53.444;14.476;2023-02-28T09:00:17;103261.24;;;0.97;74.81
58991;BME280;44781;53.444;14.476;2023-02-28T09:02:44;103262.85;;;1.06;74.53
58991;BME280;44781;53.444;14.476;2023-02-28T09:05:12;103266.02;;;1.14;74.02
58991;BME280;44781;53.444;14.476;2023-02-28T09:07:39;103269.17;;;1.21;73.26
58991;BME280;44781;53.444;14.476;2023-02-28T09:10:08;103269.88;;;1.27;72.86
58991;BME280;44781;53.444;14.476;2023-02-28T09:12:35;103272.52;;;1.33;72.54
58991;BME280;44781;53.444;14.476;2023-02-28T09:15:03;103273.73;;;1.39;71.86
58991;BME280;44781;53.444;14.476;2023-02-28T09:17:34;103270.80;;;1.45;71.63
58991;BME280;44781;53.444;14.476;2023-02-28T09:20:01;103272.90;;;1.50;71.54
58991;BME280;44781;53.444;14.476;2023-02-28T09:22:28;103273.77;;;1.56;71.12
58991;BME280;44781;53.444;14.476;2023-02-28T09:24:55;103272.05;;;1.62;70.76
58991;BME280;44781;53.444;14.476;2023-02-28T09:27:23;103273.63;;;1.68;70.64
58991;BME280;44781;53.444;14.476;2023-02-28T09:29:50;103273.80;;;1.75;70.36
58991;BME280;44781;53.444;14.476;2023-02-28T09:32:18;103273.47;;;1.82;69.94
58991;BME280;44781;53.444;14.476;2023-02-28T09:34:45;103269.29;;;1.89;69.33
58991;BME280;44781;53.444;14.476;2023-02-28T09:37:12;103272.95;;;1.95;69.01
58991;BME280;44781;53.444;14.476;2023-02-28T09:39:39;103271.89;;;2.02;68.67
58991;BME280;44781;53.444;14.476;2023-02-28T09:42:18;103272.93;;;2.09;68.49
58991;BME280;44781;53.444;14.476;2023-02-28T09:44:48;103280.77;;;2.17;68.43
58991;BME280;44781;53.444;14.476;2023-02-28T09:50:17;103290.52;;;2.37;68.07
58991;BME280;44781;53.444;14.476;2023-02-28T09:52:48;103288.41;;;2.50;67.88
58991;BME280;44781;53.444;14.476;2023-02-28T09:55:30;103286.12;;;2.63;67.55
58991;BME280;44781;53.444;14.476;2023-02-28T09:58:00;103283.29;;;2.76;67.27
58991;BME280;44781;53.444;14.476;2023-02-28T10:00:33;103282.73;;;2.87;66.97
58991;BME280;44781;53.444;14.476;2023-02-28T10:03:12;103276.58;;;2.97;66.72
58991;BME280;44781;53.444;14.476;2023-02-28T10:05:51;103274.61;;;3.09;66.36
58991;BME280;44781;53.444;14.476;2023-02-28T10:08:36;103271.95;;;3.17;65.44
58991;BME280;44781;53.444;14.476;2023-02-28T10:11:12;103268.59;;;3.23;65.12
58991;BME280;44781;53.444;14.476;2023-02-28T10:13:53;103262.80;;;3.30;65.06
58991;BME280;44781;53.444;14.476;2023-02-28T10:19:03;103255.71;;;3.45;64.30
58991;BME280;44781;53.444;14.476;2023-02-28T10:21:44;103252.86;;;3.53;63.91
58991;BME280;44781;53.444;14.476;2023-02-28T10:24:23;103249.34;;;3.59;63.52
58991;BME280;44781;53.444;14.476;2023-02-28T10:27:00;103249.10;;;3.67;63.11
58991;BME280;44781;53.444;14.476;2023-02-28T10:29:31;103251.31;;;3.75;62.91
58991;BME280;44781;53.444;14.476;2023-02-28T10:32:00;103254.57;;;3.82;62.38
58991;BME280;44781;53.444;14.476;2023-02-28T10:34:29;103258.20;;;3.88;62.00
58991;BME280;44781;53.444;14.476;2023-02-28T10:36:56;103260.25;;;3.95;61.76
58991;BME280;44781;53.444;14.476;2023-02-28T10:42:05;103267.80;;;4.10;61.18
58991;BME280;44781;53.444;14.476;2023-02-28T10:44:45;103264.09;;;4.17;60.77
58991;BME280;44781;53.444;14.476;2023-02-28T10:47:17;103262.98;;;4.23;60.60
58991;BME280;44781;53.444;14.476;2023-02-28T10:49:49;103265.88;;;4.29;60.19
58991;BME280;44781;53.444;14.476;2023-02-28T10:52:39;103262.34;;;4.33;59.67
58991;BME280;44781;53.444;14.476;2023-02-28T10:55:24;103261.93;;;4.39;59.15
58991;BME280;44781;53.444;14.476;2023-02-28T11:01:46;103260.90;;;4.55;58.85
58991;BME280;44781;53.444;14.476;2023-02-28T11:06:58;103252.48;;;4.72;58.70
58991;BME280;44781;53.444;14.476;2023-02-28T11:09:36;103251.14;;;4.81;58.33
58991;BME280;44781;53.444;14.476;2023-02-28T11:12:07;103245.63;;;4.88;58.07
58991;BME280;44781;53.444;14.476;2023-02-28T11:14:51;103241.70;;;4.94;57.90
58991;BME280;44781;53.444;14.476;2023-02-28T11:17:24;103237.05;;;5.01;57.77
58991;BME280;44781;53.444;14.476;2023-02-28T11:19:58;103238.16;;;5.09;57.61
58991;BME280;44781;53.444;14.476;2023-02-28T11:22:32;103236.14;;;5.16;56.97
58991;BME280;44781;53.444;14.476;2023-02-28T11:25:34;103232.55;;;5.23;56.74
58991;BME280;44781;53.444;14.476;2023-02-28T11:28:05;103231.02;;;5.31;56.56
58991;BME280;44781;53.444;14.476;2023-02-28T11:30:39;103230.20;;;5.39;56.53
58991;BME280;44781;53.444;14.476;2023-02-28T11:36:25;103226.04;;;5.59;55.81
58991;BME280;44781;53.444;14.476;2023-02-28T11:39:10;103218.73;;;5.67;55.06
58991;BME280;44781;53.444;14.476;2023-02-28T12:07:58;103197.13;;;6.72;53.15
58991;BME280;44781;53.444;14.476;2023-02-28T12:11:10;103196.16;;;6.78;52.34
58991;BME280;44781;53.444;14.476;2023-02-28T12:13:51;103191.17;;;6.80;51.70
58991;BME280;44781;53.444;14.476;2023-02-28T12:22:47;103191.73;;;7.03;51.57
58991;BME280;44781;53.444;14.476;2023-02-28T12:25:38;103187.61;;;7.14;51.53
58991;BME280;44781;53.444;14.476;2023-02-28T12:28:17;103181.89;;;7.26;51.80
58991;BME280;44781;53.444;14.476;2023-02-28T12:30:58;103177.06;;;7.37;51.68
58991;BME280;44781;53.444;14.476;2023-02-28T12:33:33;103173.62;;;7.48;51.05
58991;BME280;44781;53.444;14.476;2023-02-28T12:36:09;103167.05;;;7.58;50.97
58991;BME280;44781;53.444;14.476;2023-02-28T12:39:32;103160.98;;;7.68;50.55
58991;BME280;44781;53.444;14.476;2023-02-28T12:46:09;103162.03;;;7.95;49.92
58991;BME280;44781;53.444;14.476;2023-02-28T12:48:46;103155.36;;;8.08;49.33
58991;BME280;44781;53.444;14.476;2023-02-28T12:51:47;103153.30;;;8.18;49.37
58991;BME280;44781;53.444;14.476;2023-02-28T12:54:41;103147.46;;;8.25;49.01
58991;BME280;44781;53.444;14.476;2023-02-28T12:58:41;103140.63;;;8.31;48.81
58991;BME280;44781;53.444;14.476;2023-02-28T13:01:48;103133.60;;;8.36;48.65
58991;BME280;44781;53.444;14.476;2023-02-28T13:10:32;103127.76;;;8.63;48.71
58991;BME280;44781;53.444;14.476;2023-02-28T13:13:46;103119.79;;;8.75;48.59
58991;BME280;44781;53.444;14.476;2023-02-28T13:37:49;103118.55;;;9.31;46.86
58991;BME280;44781;53.444;14.476;2023-02-28T13:40:31;103120.27;;;9.37;46.87
58991;BME280;44781;53.444;14.476;2023-02-28T13:43:08;103117.21;;;9.44;46.85
58991;BME280;44781;53.444;14.476;2023-02-28T13:45:35;103111.63;;;9.53;46.83
58991;BME280;44781;53.444;14.476;2023-02-28T13:48:19;103106.18;;;9.63;46.60
58991;BME280;44781;53.444;14.476;2023-02-28T13:50:50;103106.46;;;9.74;46.79
58991;BME280;44781;53.444;14.476;2023-02-28T13:53:33;103101.74;;;9.83;46.22
58991;BME280;44781;53.444;14.476;2023-02-28T13:59:12;103094.90;;;9.97;45.56
58991;BME280;44781;53.444;14.476;2023-02-28T14:06:55;103094.41;;;10.15;45.48
58991;BME280;44781;53.444;14.476;2023-02-28T14:09:29;103094.40;;;10.20;45.05
58991;BME280;44781;53.444;14.476;2023-02-28T14:18:28;103088.64;;;10.28;43.93
58991;BME280;44781;53.444;14.476;2023-02-28T14:21:09;103087.77;;;10.22;43.84
58991;BME280;44781;53.444;14.476;2023-02-28T14:27:28;103081.03;;;10.28;44.00
58991;BME280;44781;53.444;14.476;2023-02-28T14:33:22;103083.36;;;10.47;44.12
58991;BME280;44781;53.444;14.476;2023-02-28T14:39:15;103077.45;;;10.62;43.82
58991;BME280;44781;53.444;14.476;2023-02-28T14:45:21;103065.92;;;10.72;43.09
58991;BME280;44781;53.444;14.476;2023-02-28T14:48:31;103073.70;;;10.68;42.22
58991;BME280;44781;53.444;14.476;2023-02-28T14:51:05;103071.90;;;10.59;42.45
58991;BME280;44781;53.444;14.476;2023-02-28T14:53:56;103069.14;;;10.58;42.69
58991;BME280;44781;53.444;14.476;2023-02-28T14:56:54;103071.44;;;10.62;42.87
58991;BME280;44781;53.444;14.476;2023-02-28T14:59:29;103073.02;;;10.72;42.68
58991;BME280;44781;53.444;14.476;2023-02-28T15:02:21;103075.46;;;10.76;42.22
58991;BME280;44781;53.444;14.476;2023-02-28T15:04:54;103070.82;;;10.78;41.89
58991;BME280;44781;53.444;14.476;2023-02-28T15:07:24;103066.27;;;10.81;41.89
58991;BME280;44781;53.444;14.476;2023-02-28T15:10:25;103065.88;;;10.86;42.05
58991;BME280;44781;53.444;14.476;2023-02-28T15:13:08;103069.23;;;10.91;41.60
58991;BME280;44781;53.444;14.476;2023-02-28T15:15:42;103063.63;;;10.89;41.09
58991;BME280;44781;53.444;14.476;2023-02-28T15:18:46;103064.13;;;10.90;41.25
58991;BME280;44781;53.444;14.476;2023-02-28T15:21:43;103059.34;;;10.91;41.02
58991;BME280;44781;53.444;14.476;2023-02-28T15:24:51;103057.89;;;10.87;40.61
58991;BME280;44781;53.444;14.476;2023-02-28T15:27:36;103055.42;;;10.82;40.53
58991;BME280;44781;53.444;14.476;2023-02-28T15:30:29;103058.08;;;10.74;40.67
58991;BME280;44781;53.444;14.476;2023-02-28T15:35:44;103058.93;;;10.65;40.49
58991;BME280;44781;53.444;14.476;2023-02-28T15:38:13;103061.37;;;10.62;41.11
58991;BME280;44781;53.444;14.476;2023-02-28T15:40:49;103063.60;;;10.63;41.43